sensor_id;sensor_type;location;lat;lon;timestamp;P1;durP1;ratioP1;P2;durP2;ratioP2
6513;SDS011;3290;47.716;9.070;2022-11-15T00:00:51;108.10;;;11.90;;
6513;SDS011;3290;47.716;9.070;2022-11-15T00:03:18;131.27;;;11.40;;
6513;SDS011;3290;47.716;9.070;2022-11-15T00:05:46;146.50;;;12.50;;
6513;SDS011;3290;47.716;9.070;2022-11-15T00:08:11;166.80;;;14.70;;
6513;SDS011;3290;47.716;9.070;2022-11-15T00:10:37;69.43;;;11.50;;
6513;SDS011;3290;47.716;9.070;2022-11-15T00:13:06;104.93;;;13.23;;
6513;SDS011;3290;47.716;9.070;2022-11-15T00:15:34;148.00;;;19.93;;
6513;SDS011;3290;47.716;9.070;2022-11-15T00:18:00;125.87;;;16.43;;
6513;SDS011;3290;47.716;9.070;2022-11-15T00:20:26;152.07;;;16.60;;
6513;SDS011;3290;47.716;9.070;2022-11-15T00:22:51;91.07;;;12.70;;
6513;SDS011;3290;47.716;9.070;2022-11-15T00:25:16;92.50;;;11.00;;
6513;SDS011;3290;47.716;9.070;2022-11-15T00:27:42;129.80;;;11.87;;
6513;SDS011;3290;47.716;9.070;2022-11-15T00:30:07;54.23;;;9.27;;
6513;SDS011;3290;47.716;9.070;2022-11-15T00:32:33;126.83;;;12.10;;
6513;SDS011;3290;47.716;9.070;2022-11-15T00:34:58;138.10;;;11.77;;
6513;SDS011;3290;47.716;9.070;2022-11-15T00:37:24;146.73;;;17.07;;
6513;SDS011;3290;47.716;9.070;2022-11-15T00:39:49;164.93;;;12.60;;
6513;SDS011;3290;47.716;9.070;2022-11-15T00:42:14;196.70;;;12.40;;
6513;SDS011;3290;47.716;9.070;2022-11-15T00:44:40;135.77;;;13.47;;
6513;SDS011;3290;47.716;9.070;2022-11-15T00:47:05;146.87;;;13.23;;
6513;SDS011;3290;47.716;9.070;2022-11-15T00:49:30;88.60;;;9.97;;
6513;SDS011;3290;47.716;9.070;2022-11-15T00:51:56;129.57;;;11.63;;
6513;SDS011;3290;47.716;9.070;2022-11-15T00:54:21;135.70;;;11.80;;
6513;SDS011;3290;47.716;9.070;2022-11-15T00:56:46;168.67;;;19.03;;
6513;SDS011;3290;47.716;9.070;2022-11-15T00:59:12;273.00;;;18.13;;
6513;SDS011;3290;47.716;9.070;2022-11-15T01:01:37;281.00;;;14.97;;
6513;SDS011;3290;47.716;9.070;2022-11-15T01:04:02;249.77;;;13.40;;
6513;SDS011;3290;47.716;9.070;2022-11-15T01:06:28;216.13;;;15.10;;
6513;SDS011;3290;47.716;9.070;2022-11-15T01:08:53;266.83;;;17.10;;
6513;SDS011;3290;47.716;9.070;2022-11-15T01:11:18;257.53;;;17.53;;
6513;SDS011;3290;47.716;9.070;2022-11-15T01:13:44;199.27;;;15.03;;
6513;SDS011;3290;47.716;9.070;2022-11-15T01:16:11;124.73;;;12.87;;
6513;SDS011;3290;47.716;9.070;2022-11-15T01:18:38;264.77;;;17.17;;
6513;SDS011;3290;47.716;9.070;2022-11-15T01:21:11;176.97;;;16.83;;
6513;SDS011;3290;47.716;9.070;2022-11-15T01:23:41;209.47;;;13.30;;
6513;SDS011;3290;47.716;9.070;2022-11-15T01:26:09;183.93;;;13.63;;
6513;SDS011;3290;47.716;9.070;2022-11-15T01:28:36;116.70;;;12.23;;
6513;SDS011;3290;47.716;9.070;2022-11-15T01:31:04;136.03;;;12.30;;
6513;SDS011;3290;47.716;9.070;2022-11-15T01:33:34;181.00;;;14.50;;
6513;SDS011;3290;47.716;9.070;2022-11-15T01:36:03;153.20;;;13.80;;
6513;SDS011;3290;47.716;9.070;2022-11-15T01:38:30;178.13;;;12.33;;
6513;SDS011;3290;47.716;9.070;2022-11-15T01:40:55;180.87;;;13.83;;
6513;SDS011;3290;47.716;9.070;2022-11-15T01:43:25;61.10;;;12.00;;
6513;SDS011;3290;47.716;9.070;2022-11-15T01:45:55;154.73;;;13.73;;
6513;SDS011;3290;47.716;9.070;2022-11-15T01:48:25;128.47;;;12.53;;
6513;SDS011;3290;47.716;9.070;2022-11-15T01:50:59;183.87;;;16.37;;
6513;SDS011;3290;47.716;9.070;2022-11-15T01:53:27;99.33;;;10.80;;
6513;SDS011;3290;47.716;9.070;2022-11-15T01:55:56;124.70;;;11.03;;
6513;SDS011;3290;47.716;9.070;2022-11-15T01:58:22;122.93;;;11.13;;
6513;SDS011;3290;47.716;9.070;2022-11-15T02:00:48;77.60;;;9.83;;
6513;SDS011;3290;47.716;9.070;2022-11-15T02:03:15;59.63;;;7.73;;
6513;SDS011;3290;47.716;9.070;2022-11-15T02:05:41;67.83;;;7.83;;
6513;SDS011;3290;47.716;9.070;2022-11-15T02:08:08;26.50;;;8.40;;
6513;SDS011;3290;47.716;9.070;2022-11-15T02:10:33;79.30;;;9.50;;
6513;SDS011;3290;47.716;9.070;2022-11-15T02:12:59;74.67;;;12.07;;
6513;SDS011;3290;47.716;9.070;2022-11-15T02:15:26;53.27;;;9.63;;
6513;SDS011;3290;47.716;9.070;2022-11-15T02:20:47;43.83;;;8.53;;
6513;SDS011;3290;47.716;9.070;2022-11-15T02:28:45;25.63;;;8.97;;
6513;SDS011;3290;47.716;9.070;2022-11-15T02:31:45;100.37;;;9.63;;
6513;SDS011;3290;47.716;9.070;2022-11-15T02:37:21;22.10;;;8.13;;
6513;SDS011;3290;47.716;9.070;2022-11-15T02:42:24;44.23;;;8.70;;
6513;SDS011;3290;47.716;9.070;2022-11-15T02:45:13;31.00;;;8.43;;
6513;SDS011;3290;47.716;9.070;2022-11-15T02:47:45;23.73;;;8.83;;
6513;SDS011;3290;47.716;9.070;2022-11-15T02:50:18;14.97;;;8.07;;
6513;SDS011;3290;47.716;9.070;2022-11-15T02:52:50;19.37;;;9.20;;
6513;SDS011;3290;47.716;9.070;2022-11-15T02:55:35;19.00;;;10.53;;
6513;SDS011;3290;47.716;9.070;2022-11-15T02:58:17;20.60;;;10.10;;
6513;SDS011;3290;47.716;9.070;2022-11-15T03:00:58;14.57;;;9.03;;
6513;SDS011;3290;47.716;9.070;2022-11-15T03:06:13;34.10;;;8.53;;
6513;SDS011;3290;47.716;9.070;2022-11-15T03:09:07;27.87;;;9.20;;
6513;SDS011;3290;47.716;9.070;2022-11-15T03:11:38;21.63;;;9.07;;
6513;SDS011;3290;47.716;9.070;2022-11-15T03:14:12;18.93;;;7.90;;
6513;SDS011;3290;47.716;9.070;2022-11-15T03:22:30;12.07;;;7.57;;
6513;SDS011;3290;47.716;9.070;2022-11-15T03:25:01;19.60;;;8.57;;
6513;SDS011;3290;47.716;9.070;2022-11-15T03:27:31;13.40;;;9.50;;
6513;SDS011;3290;47.716;9.070;2022-11-15T03:30:02;14.63;;;9.10;;
6513;SDS011;3290;47.716;9.070;2022-11-15T03:32:31;15.50;;;9.20;;
6513;SDS011;3290;47.716;9.070;2022-11-15T03:35:03;16.83;;;9.97;;
6513;SDS011;3290;47.716;9.070;2022-11-15T03:37:36;15.10;;;9.90;;
6513;SDS011;3290;47.716;9.070;2022-11-15T03:40:07;16.50;;;9.80;;
6513;SDS011;3290;47.716;9.070;2022-11-15T03:45:14;25.93;;;10.20;;
6513;SDS011;3290;47.716;9.070;2022-11-15T03:47:42;26.87;;;10.23;;
6513;SDS011;3290;47.716;9.070;2022-11-15T03:50:12;15.67;;;9.90;;
6513;SDS011;3290;47.716;9.070;2022-11-15T03:52:41;16.50;;;9.73;;
6513;SDS011;3290;47.716;9.070;2022-11-15T03:55:11;45.47;;;9.23;;
6513;SDS011;3290;47.716;9.070;2022-11-15T03:57:38;35.97;;;8.40;;
6513;SDS011;3290;47.716;9.070;2022-11-15T04:00:03;78.50;;;10.20;;
6513;SDS011;3290;47.716;9.070;2022-11-15T04:02:29;70.53;;;9.60;;
6513;SDS011;3290;47.716;9.070;2022-11-15T04:04:55;83.20;;;10.87;;
6513;SDS011;3290;47.716;9.070;2022-11-15T04:07:20;83.47;;;11.27;;
6513;SDS011;3290;47.716;9.070;2022-11-15T04:09:46;60.53;;;10.30;;
6513;SDS011;3290;47.716;9.070;2022-11-15T04:12:33;32.60;;;9.00;;
6513;SDS011;3290;47.716;9.070;2022-11-15T04:15:02;86.80;;;10.97;;
6513;SDS011;3290;47.716;9.070;2022-11-15T04:17:36;125.30;;;14.47;;
6513;SDS011;3290;47.716;9.070;2022-11-15T04:20:03;141.37;;;18.43;;
6513;SDS011;3290;47.716;9.070;2022-11-15T04:22:47;74.87;;;11.77;;
6513;SDS011;3290;47.716;9.070;2022-11-15T04:25:31;63.90;;;12.57;;
6513;SDS011;3290;47.716;9.070;2022-11-15T04:27:57;41.80;;;11.10;;
6513;SDS011;3290;47.716;9.070;2022-11-15T04:30:22;70.63;;;12.40;;
6513;SDS011;3290;47.716;9.070;2022-11-15T04:32:47;52.67;;;11.60;;
6513;SDS011;3290;47.716;9.070;2022-11-15T04:35:13;156.83;;;14.63;;
6513;SDS011;3290;47.716;9.070;2022-11-15T04:37:38;37.60;;;12.57;;
6513;SDS011;3290;47.716;9.070;2022-11-15T04:40:04;72.70;;;11.63;;
6513;SDS011;3290;47.716;9.070;2022-11-15T04:42:29;100.97;;;12.73;;
6513;SDS011;3290;47.716;9.070;2022-11-15T04:44:55;99.53;;;12.50;;
6513;SDS011;3290;47.716;9.070;2022-11-15T04:47:21;118.10;;;15.80;;
6513;SDS011;3290;47.716;9.070;2022-11-15T04:49:46;184.23;;;18.33;;
6513;SDS011;3290;47.716;9.070;2022-11-15T04:52:11;74.53;;;13.93;;
6513;SDS011;3290;47.716;9.070;2022-11-15T04:54:37;136.97;;;13.70;;
6513;SDS011;3290;47.716;9.070;2022-11-15T04:57:02;80.73;;;11.93;;
6513;SDS011;3290;47.716;9.070;2022-11-15T04:59:27;147.93;;;12.40;;
6513;SDS011;3290;47.716;9.070;2022-11-15T05:01:53;106.23;;;12.00;;
6513;SDS011;3290;47.716;9.070;2022-11-15T05:04:18;73.43;;;10.70;;
6513;SDS011;3290;47.716;9.070;2022-11-15T05:06:47;37.33;;;10.57;;
6513;SDS011;3290;47.716;9.070;2022-11-15T05:09:13;64.27;;;12.47;;
6513;SDS011;3290;47.716;9.070;2022-11-15T05:11:39;38.47;;;11.10;;
6513;SDS011;3290;47.716;9.070;2022-11-15T05:14:05;414.43;;;32.00;;
6513;SDS011;3290;47.716;9.070;2022-11-15T05:16:30;142.10;;;14.60;;
6513;SDS011;3290;47.716;9.070;2022-11-15T05:18:55;130.60;;;16.43;;
6513;SDS011;3290;47.716;9.070;2022-11-15T05:21:22;81.57;;;13.20;;
6513;SDS011;3290;47.716;9.070;2022-11-15T05:23:47;90.17;;;14.70;;
6513;SDS011;3290;47.716;9.070;2022-11-15T05:26:12;118.20;;;14.13;;
6513;SDS011;3290;47.716;9.070;2022-11-15T05:28:39;126.17;;;12.70;;
6513;SDS011;3290;47.716;9.070;2022-11-15T05:31:06;105.63;;;12.30;;
6513;SDS011;3290;47.716;9.070;2022-11-15T05:33:33;78.47;;;11.50;;
6513;SDS011;3290;47.716;9.070;2022-11-15T05:36:02;155.17;;;16.83;;
6513;SDS011;3290;47.716;9.070;2022-11-15T05:38:32;131.17;;;14.13;;
6513;SDS011;3290;47.716;9.070;2022-11-15T05:40:59;233.23;;;14.10;;
6513;SDS011;3290;47.716;9.070;2022-11-15T05:43:26;204.53;;;15.80;;
6513;SDS011;3290;47.716;9.070;2022-11-15T05:45:52;168.80;;;15.50;;
6513;SDS011;3290;47.716;9.070;2022-11-15T05:48:18;147.67;;;13.40;;
6513;SDS011;3290;47.716;9.070;2022-11-15T05:50:44;186.60;;;14.57;;
6513;SDS011;3290;47.716;9.070;2022-11-15T05:53:11;236.40;;;15.27;;
6513;SDS011;3290;47.716;9.070;2022-11-15T05:55:39;335.73;;;22.33;;
6513;SDS011;3290;47.716;9.070;2022-11-15T05:58:05;224.93;;;16.20;;
6513;SDS011;3290;47.716;9.070;2022-11-15T06:00:31;165.83;;;13.20;;
6513;SDS011;3290;47.716;9.070;2022-11-15T06:02:57;119.20;;;13.20;;
6513;SDS011;3290;47.716;9.070;2022-11-15T06:05:22;193.80;;;17.10;;
6513;SDS011;3290;47.716;9.070;2022-11-15T06:07:48;131.00;;;15.67;;
6513;SDS011;3290;47.716;9.070;2022-11-15T06:10:13;106.83;;;16.10;;
6513;SDS011;3290;47.716;9.070;2022-11-15T06:12:39;91.90;;;15.60;;
6513;SDS011;3290;47.716;9.070;2022-11-15T06:15:04;119.37;;;13.13;;
6513;SDS011;3290;47.716;9.070;2022-11-15T06:17:30;142.47;;;15.00;;
6513;SDS011;3290;47.716;9.070;2022-11-15T06:19:55;117.13;;;14.87;;
6513;SDS011;3290;47.716;9.070;2022-11-15T06:22:20;68.13;;;12.00;;
6513;SDS011;3290;47.716;9.070;2022-11-15T06:24:46;67.07;;;12.83;;
6513;SDS011;3290;47.716;9.070;2022-11-15T06:27:11;61.40;;;12.80;;
6513;SDS011;3290;47.716;9.070;2022-11-15T06:29:37;71.13;;;12.97;;
6513;SDS011;3290;47.716;9.070;2022-11-15T06:32:02;89.07;;;11.90;;
6513;SDS011;3290;47.716;9.070;2022-11-15T06:34:27;97.53;;;12.30;;
6513;SDS011;3290;47.716;9.070;2022-11-15T06:36:53;121.30;;;13.67;;
6513;SDS011;3290;47.716;9.070;2022-11-15T06:39:18;96.27;;;14.93;;
6513;SDS011;3290;47.716;9.070;2022-11-15T06:41:44;69.73;;;13.00;;
6513;SDS011;3290;47.716;9.070;2022-11-15T06:44:09;119.37;;;15.47;;
6513;SDS011;3290;47.716;9.070;2022-11-15T06:46:34;49.70;;;11.20;;
6513;SDS011;3290;47.716;9.070;2022-11-15T06:49:00;73.97;;;13.43;;
6513;SDS011;3290;47.716;9.070;2022-11-15T06:51:25;51.73;;;12.37;;
6513;SDS011;3290;47.716;9.070;2022-11-15T06:53:50;43.57;;;10.97;;
6513;SDS011;3290;47.716;9.070;2022-11-15T06:56:16;28.67;;;12.53;;
6513;SDS011;3290;47.716;9.070;2022-11-15T06:58:41;32.83;;;13.80;;
6513;SDS011;3290;47.716;9.070;2022-11-15T07:01:07;44.37;;;14.33;;
6513;SDS011;3290;47.716;9.070;2022-11-15T07:03:35;39.53;;;12.30;;
6513;SDS011;3290;47.716;9.070;2022-11-15T07:06:04;26.77;;;12.63;;
6513;SDS011;3290;47.716;9.070;2022-11-15T07:08:30;19.83;;;12.23;;
6513;SDS011;3290;47.716;9.070;2022-11-15T07:11:00;80.33;;;13.13;;
6513;SDS011;3290;47.716;9.070;2022-11-15T07:13:33;31.60;;;14.07;;
6513;SDS011;3290;47.716;9.070;2022-11-15T07:16:05;44.10;;;11.87;;
6513;SDS011;3290;47.716;9.070;2022-11-15T07:18:36;29.47;;;12.80;;
6513;SDS011;3290;47.716;9.070;2022-11-15T07:21:03;47.17;;;12.80;;
6513;SDS011;3290;47.716;9.070;2022-11-15T07:23:29;59.93;;;12.60;;
6513;SDS011;3290;47.716;9.070;2022-11-15T07:25:58;46.83;;;11.30;;
6513;SDS011;3290;47.716;9.070;2022-11-15T07:28:24;29.47;;;15.07;;
6513;SDS011;3290;47.716;9.070;2022-11-15T07:30:50;27.70;;;12.87;;
6513;SDS011;3290;47.716;9.070;2022-11-15T07:33:16;125.77;;;12.37;;
6513;SDS011;3290;47.716;9.070;2022-11-15T07:35:41;56.53;;;12.83;;
6513;SDS011;3290;47.716;9.070;2022-11-15T07:38:07;164.60;;;14.27;;
6513;SDS011;3290;47.716;9.070;2022-11-15T07:40:33;262.73;;;19.93;;
6513;SDS011;3290;47.716;9.070;2022-11-15T07:43:03;184.73;;;23.40;;
6513;SDS011;3290;47.716;9.070;2022-11-15T07:45:32;275.07;;;16.83;;
6513;SDS011;3290;47.716;9.070;2022-11-15T07:48:01;160.57;;;14.67;;
6513;SDS011;3290;47.716;9.070;2022-11-15T07:50:26;186.10;;;13.40;;
6513;SDS011;3290;47.716;9.070;2022-11-15T07:52:57;162.47;;;13.37;;
6513;SDS011;3290;47.716;9.070;2022-11-15T07:55:24;108.93;;;14.37;;
6513;SDS011;3290;47.716;9.070;2022-11-15T07:57:52;135.57;;;18.30;;
6513;SDS011;3290;47.716;9.070;2022-11-15T08:00:17;326.67;;;21.10;;
6513;SDS011;3290;47.716;9.070;2022-11-15T08:02:43;119.57;;;16.20;;
6513;SDS011;3290;47.716;9.070;2022-11-15T08:05:09;157.97;;;17.03;;
6513;SDS011;3290;47.716;9.070;2022-11-15T08:07:34;104.97;;;14.10;;
6513;SDS011;3290;47.716;9.070;2022-11-15T08:10:00;198.87;;;15.80;;
6513;SDS011;3290;47.716;9.070;2022-11-15T08:12:30;213.60;;;14.20;;
6513;SDS011;3290;47.716;9.070;2022-11-15T08:14:56;177.87;;;18.77;;
6513;SDS011;3290;47.716;9.070;2022-11-15T08:17:22;130.00;;;14.47;;
6513;SDS011;3290;47.716;9.070;2022-11-15T08:19:48;143.27;;;15.03;;
6513;SDS011;3290;47.716;9.070;2022-11-15T08:22:13;203.97;;;52.07;;
6513;SDS011;3290;47.716;9.070;2022-11-15T08:24:39;81.80;;;29.27;;
6513;SDS011;3290;47.716;9.070;2022-11-15T08:27:05;64.93;;;13.80;;
6513;SDS011;3290;47.716;9.070;2022-11-15T08:29:39;43.57;;;14.27;;
6513;SDS011;3290;47.716;9.070;2022-11-15T08:32:06;81.90;;;17.80;;
6513;SDS011;3290;47.716;9.070;2022-11-15T08:34:32;113.93;;;16.40;;
6513;SDS011;3290;47.716;9.070;2022-11-15T08:36:57;95.63;;;18.90;;
6513;SDS011;3290;47.716;9.070;2022-11-15T08:39:23;35.77;;;14.10;;
6513;SDS011;3290;47.716;9.070;2022-11-15T08:41:48;38.30;;;13.63;;
6513;SDS011;3290;47.716;9.070;2022-11-15T08:44:13;59.53;;;14.70;;
6513;SDS011;3290;47.716;9.070;2022-11-15T08:46:39;25.37;;;11.23;;
6513;SDS011;3290;47.716;9.070;2022-11-15T08:49:04;26.40;;;10.77;;
6513;SDS011;3290;47.716;9.070;2022-11-15T08:51:29;35.30;;;11.93;;
6513;SDS011;3290;47.716;9.070;2022-11-15T08:53:55;60.97;;;20.30;;
6513;SDS011;3290;47.716;9.070;2022-11-15T08:56:20;105.03;;;13.47;;
6513;SDS011;3290;47.716;9.070;2022-11-15T08:58:46;36.97;;;12.53;;
6513;SDS011;3290;47.716;9.070;2022-11-15T09:01:16;32.70;;;10.50;;
6513;SDS011;3290;47.716;9.070;2022-11-15T09:03:42;28.50;;;10.87;;
6513;SDS011;3290;47.716;9.070;2022-11-15T09:06:08;28.03;;;10.93;;
6513;SDS011;3290;47.716;9.070;2022-11-15T09:08:34;20.83;;;11.63;;
6513;SDS011;3290;47.716;9.070;2022-11-15T09:11:02;25.07;;;12.20;;
6513;SDS011;3290;47.716;9.070;2022-11-15T09:13:28;36.90;;;12.20;;
6513;SDS011;3290;47.716;9.070;2022-11-15T09:15:57;21.73;;;10.83;;
6513;SDS011;3290;47.716;9.070;2022-11-15T09:18:24;31.43;;;12.30;;
6513;SDS011;3290;47.716;9.070;2022-11-15T09:20:49;20.33;;;11.73;;
6513;SDS011;3290;47.716;9.070;2022-11-15T09:23:14;16.37;;;11.13;;
6513;SDS011;3290;47.716;9.070;2022-11-15T09:25:40;23.30;;;12.07;;
6513;SDS011;3290;47.716;9.070;2022-11-15T09:28:06;24.70;;;12.53;;
6513;SDS011;3290;47.716;9.070;2022-11-15T09:30:31;20.37;;;13.03;;
6513;SDS011;3290;47.716;9.070;2022-11-15T09:32:57;21.63;;;12.57;;
6513;SDS011;3290;47.716;9.070;2022-11-15T09:35:22;16.97;;;12.40;;
6513;SDS011;3290;47.716;9.070;2022-11-15T09:37:47;21.27;;;11.83;;
6513;SDS011;3290;47.716;9.070;2022-11-15T09:40:13;16.67;;;11.20;;
6513;SDS011;3290;47.716;9.070;2022-11-15T09:43:03;28.07;;;11.70;;
6513;SDS011;3290;47.716;9.070;2022-11-15T09:48:37;26.10;;;13.67;;
6513;SDS011;3290;47.716;9.070;2022-11-15T09:51:04;22.30;;;12.60;;
6513;SDS011;3290;47.716;9.070;2022-11-15T09:53:36;28.77;;;14.10;;
6513;SDS011;3290;47.716;9.070;2022-11-15T09:56:13;20.27;;;13.17;;
6513;SDS011;3290;47.716;9.070;2022-11-15T09:58:46;48.03;;;32.43;;
6513;SDS011;3290;47.716;9.070;2022-11-15T10:04:02;15.90;;;11.10;;
6513;SDS011;3290;47.716;9.070;2022-11-15T10:06:27;18.40;;;11.87;;
6513;SDS011;3290;47.716;9.070;2022-11-15T10:09:01;16.73;;;11.53;;
6513;SDS011;3290;47.716;9.070;2022-11-15T10:11:32;17.70;;;11.20;;
6513;SDS011;3290;47.716;9.070;2022-11-15T10:14:02;18.60;;;12.23;;
6513;SDS011;3290;47.716;9.070;2022-11-15T10:19:28;22.33;;;12.63;;
6513;SDS011;3290;47.716;9.070;2022-11-15T10:24:46;23.10;;;12.73;;
6513;SDS011;3290;47.716;9.070;2022-11-15T10:27:17;15.50;;;10.40;;
6513;SDS011;3290;47.716;9.070;2022-11-15T10:29:44;17.30;;;11.80;;
6513;SDS011;3290;47.716;9.070;2022-11-15T10:32:14;19.93;;;11.97;;
6513;SDS011;3290;47.716;9.070;2022-11-15T10:34:41;17.70;;;12.17;;
6513;SDS011;3290;47.716;9.070;2022-11-15T10:37:07;17.20;;;11.23;;
6513;SDS011;3290;47.716;9.070;2022-11-15T10:39:32;19.93;;;11.90;;
6513;SDS011;3290;47.716;9.070;2022-11-15T10:42:17;23.90;;;12.27;;
6513;SDS011;3290;47.716;9.070;2022-11-15T10:44:53;25.10;;;14.53;;
6513;SDS011;3290;47.716;9.070;2022-11-15T10:47:28;25.33;;;15.00;;
6513;SDS011;3290;47.716;9.070;2022-11-15T10:49:57;23.07;;;14.07;;
6513;SDS011;3290;47.716;9.070;2022-11-15T10:52:27;19.67;;;13.10;;
6513;SDS011;3290;47.716;9.070;2022-11-15T10:58:20;21.10;;;13.60;;
6513;SDS011;3290;47.716;9.070;2022-11-15T11:05:34;18.77;;;12.20;;
6513;SDS011;3290;47.716;9.070;2022-11-15T11:08:09;16.70;;;11.70;;
6513;SDS011;3290;47.716;9.070;2022-11-15T11:10:56;16.80;;;11.43;;
6513;SDS011;3290;47.716;9.070;2022-11-15T11:18:56;19.77;;;13.50;;
6513;SDS011;3290;47.716;9.070;2022-11-15T11:33:07;14.23;;;9.93;;
6513;SDS011;3290;47.716;9.070;2022-11-15T11:38:37;23.80;;;11.00;;
6513;SDS011;3290;47.716;9.070;2022-11-15T11:44:05;15.00;;;10.07;;
6513;SDS011;3290;47.716;9.070;2022-11-15T11:46:46;18.57;;;10.13;;
6513;SDS011;3290;47.716;9.070;2022-11-15T11:55:18;15.43;;;10.83;;
6513;SDS011;3290;47.716;9.070;2022-11-15T12:00:55;30.60;;;13.83;;
6513;SDS011;3290;47.716;9.070;2022-11-15T12:03:34;16.43;;;11.07;;
6513;SDS011;3290;47.716;9.070;2022-11-15T12:08:53;14.20;;;9.90;;
6513;SDS011;3290;47.716;9.070;2022-11-15T12:11:26;15.90;;;9.43;;
6513;SDS011;3290;47.716;9.070;2022-11-15T12:13:58;12.10;;;8.87;;
6513;SDS011;3290;47.716;9.070;2022-11-15T12:16:27;12.93;;;8.70;;
6513;SDS011;3290;47.716;9.070;2022-11-15T12:18:55;16.97;;;9.83;;
6513;SDS011;3290;47.716;9.070;2022-11-15T12:21:34;13.90;;;8.30;;
6513;SDS011;3290;47.716;9.070;2022-11-15T12:24:14;14.43;;;8.23;;
6513;SDS011;3290;47.716;9.070;2022-11-15T12:26:50;16.37;;;7.73;;
6513;SDS011;3290;47.716;9.070;2022-11-15T12:29:23;10.27;;;8.20;;
6513;SDS011;3290;47.716;9.070;2022-11-15T12:31:54;14.97;;;9.60;;
6513;SDS011;3290;47.716;9.070;2022-11-15T12:34:37;18.03;;;8.10;;
6513;SDS011;3290;47.716;9.070;2022-11-15T12:40:24;14.40;;;7.90;;
6513;SDS011;3290;47.716;9.070;2022-11-15T12:42:57;12.40;;;9.10;;
6513;SDS011;3290;47.716;9.070;2022-11-15T12:45:30;11.60;;;8.33;;
6513;SDS011;3290;47.716;9.070;2022-11-15T12:48:23;13.00;;;8.03;;
6513;SDS011;3290;47.716;9.070;2022-11-15T12:58:50;18.67;;;11.30;;
6513;SDS011;3290;47.716;9.070;2022-11-15T13:06:52;16.50;;;9.67;;
6513;SDS011;3290;47.716;9.070;2022-11-15T13:09:49;12.43;;;9.03;;
6513;SDS011;3290;47.716;9.070;2022-11-15T13:14:51;14.30;;;10.20;;
6513;SDS011;3290;47.716;9.070;2022-11-15T13:17:28;13.57;;;8.90;;
6513;SDS011;3290;47.716;9.070;2022-11-15T13:28:02;11.50;;;8.27;;
6513;SDS011;3290;47.716;9.070;2022-11-15T13:30:35;10.97;;;6.80;;
6513;SDS011;3290;47.716;9.070;2022-11-15T13:33:09;9.10;;;6.70;;
6513;SDS011;3290;47.716;9.070;2022-11-15T13:35:40;11.47;;;6.97;;
6513;SDS011;3290;47.716;9.070;2022-11-15T13:38:17;17.57;;;7.20;;
6513;SDS011;3290;47.716;9.070;2022-11-15T13:40:54;12.27;;;6.73;;
6513;SDS011;3290;47.716;9.070;2022-11-15T13:43:34;13.10;;;6.10;;
6513;SDS011;3290;47.716;9.070;2022-11-15T13:48:36;21.73;;;7.40;;
6513;SDS011;3290;47.716;9.070;2022-11-15T13:51:02;9.67;;;6.67;;
6513;SDS011;3290;47.716;9.070;2022-11-15T13:53:32;22.40;;;9.70;;
6513;SDS011;3290;47.716;9.070;2022-11-15T13:56:02;17.30;;;7.50;;
6513;SDS011;3290;47.716;9.070;2022-11-15T13:58:28;14.33;;;7.33;;
6513;SDS011;3290;47.716;9.070;2022-11-15T14:01:01;9.80;;;6.00;;
6513;SDS011;3290;47.716;9.070;2022-11-15T14:03:30;8.87;;;6.00;;
6513;SDS011;3290;47.716;9.070;2022-11-15T14:08:37;10.20;;;7.73;;
6513;SDS011;3290;47.716;9.070;2022-11-15T14:11:05;13.77;;;8.03;;
6513;SDS011;3290;47.716;9.070;2022-11-15T14:13:32;12.17;;;7.27;;
6513;SDS011;3290;47.716;9.070;2022-11-15T14:18:45;10.33;;;8.20;;
6513;SDS011;3290;47.716;9.070;2022-11-15T14:21:15;9.17;;;7.50;;
6513;SDS011;3290;47.716;9.070;2022-11-15T14:23:42;8.40;;;6.23;;
6513;SDS011;3290;47.716;9.070;2022-11-15T14:26:11;9.87;;;6.47;;
6513;SDS011;3290;47.716;9.070;2022-11-15T14:28:52;40.00;;;20.00;;
6513;SDS011;3290;47.716;9.070;2022-11-15T14:31:17;37.80;;;18.57;;
6513;SDS011;3290;47.716;9.070;2022-11-15T14:33:44;37.00;;;20.10;;
6513;SDS011;3290;47.716;9.070;2022-11-15T14:38:35;16.03;;;10.47;;
6513;SDS011;3290;47.716;9.070;2022-11-15T14:41:00;16.83;;;10.50;;
6513;SDS011;3290;47.716;9.070;2022-11-15T14:43:26;41.70;;;24.40;;
6513;SDS011;3290;47.716;9.070;2022-11-15T14:45:51;95.27;;;45.33;;
6513;SDS011;3290;47.716;9.070;2022-11-15T14:48:17;48.90;;;24.40;;
6513;SDS011;3290;47.716;9.070;2022-11-15T14:50:42;36.43;;;19.27;;
6513;SDS011;3290;47.716;9.070;2022-11-15T14:53:12;32.93;;;18.63;;
6513;SDS011;3290;47.716;9.070;2022-11-15T14:55:40;22.40;;;15.40;;
6513;SDS011;3290;47.716;9.070;2022-11-15T14:58:06;15.83;;;11.60;;
6513;SDS011;3290;47.716;9.070;2022-11-15T15:00:38;15.03;;;10.23;;
6513;SDS011;3290;47.716;9.070;2022-11-15T15:03:05;14.87;;;10.57;;
6513;SDS011;3290;47.716;9.070;2022-11-15T15:05:32;20.30;;;11.40;;
6513;SDS011;3290;47.716;9.070;2022-11-15T15:08:01;17.20;;;10.43;;
6513;SDS011;3290;47.716;9.070;2022-11-15T15:10:27;18.10;;;10.87;;
6513;SDS011;3290;47.716;9.070;2022-11-15T15:13:00;13.60;;;10.80;;
6513;SDS011;3290;47.716;9.070;2022-11-15T15:15:27;16.30;;;10.90;;
6513;SDS011;3290;47.716;9.070;2022-11-15T15:17:57;30.50;;;12.50;;
6513;SDS011;3290;47.716;9.070;2022-11-15T15:20:22;15.03;;;10.47;;
6513;SDS011;3290;47.716;9.070;2022-11-15T15:22:47;18.37;;;11.77;;
6513;SDS011;3290;47.716;9.070;2022-11-15T15:25:21;19.43;;;11.70;;
6513;SDS011;3290;47.716;9.070;2022-11-15T15:27:57;15.40;;;11.00;;
6513;SDS011;3290;47.716;9.070;2022-11-15T15:30:24;14.63;;;11.50;;
6513;SDS011;3290;47.716;9.070;2022-11-15T15:32:50;15.90;;;11.03;;
6513;SDS011;3290;47.716;9.070;2022-11-15T15:35:16;16.93;;;12.80;;
6513;SDS011;3290;47.716;9.070;2022-11-15T15:37:43;19.80;;;12.50;;
6513;SDS011;3290;47.716;9.070;2022-11-15T15:40:10;21.70;;;13.93;;
6513;SDS011;3290;47.716;9.070;2022-11-15T15:42:39;19.23;;;13.57;;
6513;SDS011;3290;47.716;9.070;2022-11-15T15:45:05;21.70;;;16.27;;
6513;SDS011;3290;47.716;9.070;2022-11-15T15:47:30;21.90;;;13.50;;
6513;SDS011;3290;47.716;9.070;2022-11-15T15:49:56;24.53;;;14.90;;
6513;SDS011;3290;47.716;9.070;2022-11-15T15:52:21;21.60;;;15.40;;
6513;SDS011;3290;47.716;9.070;2022-11-15T15:54:47;24.53;;;18.20;;
6513;SDS011;3290;47.716;9.070;2022-11-15T15:57:12;28.00;;;14.07;;
6513;SDS011;3290;47.716;9.070;2022-11-15T15:59:39;25.70;;;15.43;;
6513;SDS011;3290;47.716;9.070;2022-11-15T16:02:04;22.07;;;14.10;;
6513;SDS011;3290;47.716;9.070;2022-11-15T16:04:29;22.60;;;14.53;;
6513;SDS011;3290;47.716;9.070;2022-11-15T16:07:01;20.23;;;13.60;;
6513;SDS011;3290;47.716;9.070;2022-11-15T16:09:27;22.70;;;14.37;;
6513;SDS011;3290;47.716;9.070;2022-11-15T16:12:11;23.30;;;13.07;;
6513;SDS011;3290;47.716;9.070;2022-11-15T16:14:36;18.23;;;12.83;;
6513;SDS011;3290;47.716;9.070;2022-11-15T16:17:02;19.77;;;13.67;;
6513;SDS011;3290;47.716;9.070;2022-11-15T16:19:28;21.97;;;15.37;;
6513;SDS011;3290;47.716;9.070;2022-11-15T16:21:56;27.17;;;15.10;;
6513;SDS011;3290;47.716;9.070;2022-11-15T16:24:22;30.20;;;16.90;;
6513;SDS011;3290;47.716;9.070;2022-11-15T16:26:47;31.90;;;19.23;;
6513;SDS011;3290;47.716;9.070;2022-11-15T16:29:15;33.53;;;19.80;;
6513;SDS011;3290;47.716;9.070;2022-11-15T16:31:40;28.30;;;16.87;;
6513;SDS011;3290;47.716;9.070;2022-11-15T16:34:06;26.93;;;17.00;;
6513;SDS011;3290;47.716;9.070;2022-11-15T16:36:34;24.63;;;14.93;;
6513;SDS011;3290;47.716;9.070;2022-11-15T16:39:00;23.60;;;15.83;;
6513;SDS011;3290;47.716;9.070;2022-11-15T16:41:29;25.43;;;14.70;;
6513;SDS011;3290;47.716;9.070;2022-11-15T16:43:54;29.77;;;18.27;;
6513;SDS011;3290;47.716;9.070;2022-11-15T16:46:22;27.90;;;18.27;;
6513;SDS011;3290;47.716;9.070;2022-11-15T16:48:49;24.50;;;16.63;;
6513;SDS011;3290;47.716;9.070;2022-11-15T16:51:15;26.73;;;16.87;;
6513;SDS011;3290;47.716;9.070;2022-11-15T16:53:41;27.33;;;18.43;;